Time;durP1;ratioP1;P1;durP2;ratioP2;P2;SDS_P1;SDS_P2;PMS_P1;PMS_P2;Temp;Humidity;BMP_temperature;BMP_pressure;BME280_temperature;BME280_humidity;BME280_pressure;Samples;Min_cycle;Max_cycle;Signal;HPM_P1;HPM_P2
2022/02/01 00:01:59;;;;;;;19.10;9.48;;;;;;;-1.47;69.20;99236.72;1725436;83;25442;-70
2022/02/01 00:04:34;;;;;;;23.65;9.88;;;;;;;-1.47;69.17;99236.72;1724554;83;27338;-70
2022/02/01 00:07:03;;;;;;;21.40;9.50;;;;;;;-1.47;69.19;99235.93;1723002;83;25797;-70
2022/02/01 00:09:32;;;;;;;23.05;10.60;;;;;;;-1.52;69.14;99235.36;1723384;83;25800;-70
2022/02/01 00:14:35;;;;;;;21.52;9.98;;;;;;;-1.52;69.20;99245.97;1725439;83;25530;-70
2022/02/01 00:35:41;;;;;;;20.17;9.33;;;;;;;-1.56;69.25;99252.84;1644101;87;25245;-70
2022/02/01 00:40:38;;;;;;;23.60;10.10;;;;;;;-1.60;69.24;99263.17;1627279;88;25604;-70
2022/02/01 00:43:06;;;;;;;22.22;9.28;;;;;;;-1.62;69.20;99267.11;1643908;87;28248;-70
2022/02/01 00:45:35;;;;;;;22.55;9.13;;;;;;;-1.63;69.18;99270.30;1643672;87;25707;-70
2022/02/01 00:48:04;;;;;;;18.40;9.15;;;;;;;-1.67;69.24;99264.42;1643731;87;25590;-70
2022/02/01 00:50:33;;;;;;;25.10;9.20;;;;;;;-1.70;69.41;99269.72;1643806;87;25693;-70
2022/02/01 00:53:01;;;;;;;30.12;10.53;;;;;;;-1.71;69.49;99261.48;1643860;87;25562;-70
2022/02/01 00:55:27;;;;;;;23.62;9.25;;;;;;;-1.72;69.82;99265.98;1643741;87;28055;-70
2022/02/01 00:57:54;;;;;;;26.02;9.55;;;;;;;-1.73;69.72;99260.41;1643665;87;25768;-70
2022/02/01 01:00:21;;;;;;;24.67;10.03;;;;;;;-1.72;69.73;99269.14;1643747;87;25722;-71
2022/02/01 01:02:50;;;;;;;26.57;8.83;;;;;;;-1.73;69.75;99268.89;1621645;87;25737;-70
2022/02/01 01:05:16;;;;;;;25.88;11.30;;;;;;;-1.76;69.77;99268.06;1643695;87;25534;-71
2022/02/01 01:07:42;;;;;;;26.95;11.45;;;;;;;-1.76;69.79;99272.04;1643759;87;27361;-71
2022/02/01 01:10:11;;;;;;;37.25;13.80;;;;;;;-1.76;69.91;99273.37;1670776;85;25710;-71
2022/02/01 01:12:48;;;;;;;24.77;10.85;;;;;;;-1.77;69.94;99276.55;1700559;83;35069;-72
2022/02/01 01:44:43;;;;;;;19.60;9.28;;;;;;;-1.89;70.55;99287.82;1736599;82;25521;-70
2022/02/01 01:55:19;;;;;;;14.73;9.00;;;;;;;-1.92;70.71;99306.36;1709991;83;25385;-70
2022/02/01 01:57:45;;;;;;;18.15;9.03;;;;;;;-1.92;70.75;99318.30;1710040;83;25392;-70
2022/02/01 02:00:51;;;;;;;21.93;8.35;;;;;;;-1.94;70.83;99311.12;1710042;83;28270;-70
2022/02/01 02:03:00;;;;;;;22.35;8.50;;;;;;;-1.90;70.88;99314.07;1706101;82;25667;-70
2022/02/01 02:05:26;;;;;;;15.15;7.12;;;;;;;-1.91;70.86;99312.45;1705769;84;25460;-70
2022/02/01 02:07:53;;;;;;;21.65;9.03;;;;;;;-1.92;70.89;99309.02;1710026;83;25949;-70
2022/02/01 02:10:26;;;;;;;18.02;7.90;;;;;;;-1.91;70.90;99322.55;1710035;83;25637;-70
2022/02/01 02:13:01;;;;;;;19.55;9.23;;;;;;;-1.90;70.95;99316.72;1704887;83;28032;-70
2022/02/01 02:15:44;;;;;;;23.02;8.38;;;;;;;-1.92;71.00;99312.99;1709079;83;25522;-70
2022/02/01 02:18:05;;;;;;;20.68;7.22;;;;;;;-1.91;70.92;99313.78;1705961;83;25414;-70
2022/02/01 02:20:49;;;;;;;18.55;7.22;;;;;;;-1.93;70.80;99323.84;1683094;85;25402;-70
2022/02/01 02:23:16;;;;;;;20.02;7.47;;;;;;;-1.97;70.73;99324.88;1682883;84;25399;-69
2022/02/01 02:25:44;;;;;;;14.78;7.05;;;;;;;-2.02;70.65;99331.98;1682912;85;27385;-70
2022/02/01 02:28:16;;;;;;;14.33;7.03;;;;;;;-2.06;70.73;99339.59;1682815;85;25616;-70
2022/02/01 02:30:49;;;;;;;17.23;7.12;;;;;;;-2.08;70.76;99339.05;1682884;85;25400;-69
2022/02/01 02:33:18;;;;;;;15.85;6.75;;;;;;;-2.13;70.88;99344.30;1682857;85;26225;-70
2022/02/01 02:36:07;;;;;;;15.18;6.47;;;;;;;-2.14;70.97;99350.66;1683302;85;25403;-70
2022/02/01 02:38:43;;;;;;;16.30;7.05;;;;;;;-2.17;71.00;99355.13;1711519;83;27465;-70
2022/02/01 02:46:25;;;;;;;14.28;6.75;;;;;;;-2.22;71.13;99359.05;1683146;85;25424;-70
2022/02/01 02:48:53;;;;;;;16.77;6.67;;;;;;;-2.26;71.13;99354.23;1724235;81;25614;-71
2022/02/01 02:51:20;;;;;;;14.75;6.62;;;;;;;-2.27;71.25;99359.77;1711712;83;27440;-71
2022/02/01 02:53:49;;;;;;;16.50;6.95;;;;;;;-2.29;71.34;99361.34;1711699;83;25557;-70
2022/02/01 02:56:16;;;;;;;18.35;7.12;;;;;;;-2.30;71.42;99365.05;1711755;83;25404;-70
2022/02/01 02:58:42;;;;;;;17.23;7.40;;;;;;;-2.29;71.57;99365.31;1711687;83;25498;-69
2022/02/01 03:01:09;;;;;;;12.73;6.10;;;;;;;-2.28;71.70;99364.81;1711757;83;25569;-69
2022/02/01 03:03:35;;;;;;;16.02;6.55;;;;;;;-2.27;71.69;99360.56;1711739;83;27875;-70
2022/02/01 03:06:08;;;;;;;15.35;6.55;;;;;;;-2.25;71.84;99364.30;1711601;83;25401;-69
2022/02/01 03:08:37;;;;;;;16.87;6.95;;;;;;;-2.23;71.94;99370.67;1684700;85;25149;-70
2022/02/01 03:11:09;;;;;;;20.82;7.15;;;;;;;-2.20;71.96;99374.16;1683170;85;25469;-70
2022/02/01 03:13:34;;;;;;;;;;;;;;;-2.17;71.92;99381.09;1713665;82;25611;-70
2022/02/01 03:16:11;;;;;;;15.10;6.15;;;;;;;-2.15;71.97;99368.92;1711761;83;28172;-70
2022/02/01 03:21:17;;;;;;;15.28;5.75;;;;;;;-2.11;71.90;99370.02;1711773;83;25607;-70
2022/02/01 03:23:43;;;;;;;13.43;5.62;;;;;;;-2.10;71.86;99376.93;1711700;83;25540;-70
2022/02/01 03:26:10;;;;;;;15.88;6.08;;;;;;;-2.07;71.87;99378.56;1711745;83;25223;-70
2022/02/01 03:28:36;;;;;;;12.18;4.90;;;;;;;-2.05;71.86;99376.98;1711737;83;28288;-70
2022/02/01 03:31:03;;;;;;;9.78;5.70;;;;;;;-2.01;71.86;99387.89;1684703;85;25444;-70
2022/02/01 03:33:29;;;;;;;11.97;4.92;;;;;;;-1.99;71.90;99395.06;1683280;85;25666;-70
2022/02/01 03:35:56;;;;;;;16.32;5.25;;;;;;;-1.98;71.78;99390.05;1703940;83;25482;-70
2022/02/01 03:38:22;;;;;;;11.33;5.10;;;;;;;-1.96;71.78;99391.92;1676928;85;25594;-70
2022/02/01 03:40:48;;;;;;;13.90;5.60;;;;;;;-1.95;71.78;99393.00;1675490;85;27928;-70
2022/02/01 03:43:15;;;;;;;10.63;5.47;;;;;;;-1.94;71.70;99395.12;1705216;84;25862;-71
2022/02/01 03:45:41;;;;;;;12.78;5.45;;;;;;;-1.97;71.81;99386.36;1703750;84;25390;-70
2022/02/01 03:48:08;;;;;;;12.03;6.10;;;;;;;-1.92;71.67;99396.48;1703699;84;25622;-70
2022/02/01 03:50:35;;;;;;;20.25;5.70;;;;;;;-1.91;71.69;99407.37;1703748;84;25618;-70
2022/02/01 03:53:01;;;;;;;13.38;5.30;;;;;;;-1.91;71.79;99410.03;1705289;83;27336;-71
2022/02/01 03:55:27;;;;;;;14.55;5.95;;;;;;;-1.90;71.72;99406.84;1703629;84;25586;-70
2022/02/01 03:57:54;;;;;;;12.00;5.58;;;;;;;-1.86;71.71;99403.17;1703713;84;25607;-71
2022/02/01 04:00:20;;;;;;;12.00;4.67;;;;;;;-1.85;71.70;99404.78;1703685;84;25510;-70
2022/02/01 04:02:46;;;;;;;11.63;4.90;;;;;;;-1.88;71.62;99394.93;1703730;84;25637;-71
2022/02/01 04:05:13;;;;;;;14.80;4.85;;;;;;;-1.86;71.53;99393.36;1703685;84;27354;-70
2022/02/01 04:07:46;;;;;;;10.10;4.78;;;;;;;-1.85;71.55;99389.67;1703617;84;25667;-70
2022/02/01 04:10:10;;;;;;;11.45;5.15;;;;;;;-1.84;71.58;99389.92;1705463;83;25524;-70
2022/02/01 04:12:38;;;;;;;10.82;4.12;;;;;;;-1.84;71.47;99389.14;1703669;84;25398;-70
2022/02/01 04:15:07;;;;;;;14.15;5.20;;;;;;;-1.84;71.51;99391.25;1703730;84;25618;-71
2022/02/01 04:17:34;;;;;;;17.27;5.10;;;;;;;-1.84;71.42;99389.14;1703828;84;26947;-71
2022/02/01 04:20:01;;;;;;;11.80;5.05;;;;;;;-1.85;71.39;99384.91;1703579;84;25417;-71
2022/02/01 04:22:28;;;;;;;14.25;4.72;;;;;;;-1.86;71.31;99381.43;1703706;84;25555;-70
2022/02/01 04:24:54;;;;;;;12.35;4.62;;;;;;;-1.86;71.30;99384.08;1703601;84;25412;-70
2022/02/01 04:30:05;;;;;;;11.28;4.92;;;;;;;-1.91;71.14;99376.90;1676834;85;27336;-71
2022/02/01 04:32:23;;;;;;;11.50;5.10;;;;;;;-1.94;71.04;99362.81;1673802;85;25747;-71
2022/02/01 04:34:58;;;;;;;12.45;5.10;;;;;;;-1.97;71.01;99365.95;1706308;83;25598;-71
2022/02/01 04:37:18;;;;;;;11.15;5.22;;;;;;;-2.02;71.02;99357.16;1709803;82;25675;-71
2022/02/01 04:39:44;;;;;;;12.75;5.05;;;;;;;-2.05;71.01;99353.67;1711865;83;25611;-71
2022/02/01 04:42:11;;;;;;;12.05;5.10;;;;;;;-2.10;71.00;99362.36;1711336;83;27493;-71
2022/02/01 04:44:37;;;;;;;17.73;5.67;;;;;;;-2.14;71.03;99368.67;1711303;83;25813;-71
2022/02/01 04:47:04;;;;;;;10.10;4.72;;;;;;;-2.17;71.02;99367.84;1711338;83;25515;-71
2022/02/01 04:49:30;;;;;;;12.37;5.05;;;;;;;-2.22;71.18;99366.99;1725147;82;26248;-71
2022/02/01 04:51:57;;;;;;;13.62;5.90;;;;;;;-2.27;71.17;99375.14;1725294;83;25515;-71
2022/02/01 04:54:23;;;;;;;15.85;5.50;;;;;;;-2.29;71.36;99372.47;1725149;83;27304;-71
2022/02/01 04:56:50;;;;;;;12.05;4.60;;;;;;;-2.32;71.40;99375.08;1725106;83;25568;-71
2022/02/01 04:59:16;;;;;;;10.43;4.65;;;;;;;-2.37;71.47;99377.66;1725215;83;25594;-71
2022/02/01 05:01:42;;;;;;;11.20;4.60;;;;;;;-2.39;71.38;99383.73;1725159;83;26260;-71
2022/02/01 05:04:11;;;;;;;10.18;4.55;;;;;;;-2.41;71.62;99385.04;1725224;83;25411;-71
2022/02/01 05:06:37;;;;;;;16.25;5.97;;;;;;;-2.42;71.58;99397.46;1725092;83;28223;-71
2022/02/01 05:09:05;;;;;;;19.50;6.00;;;;;;;-2.45;71.71;99400.09;1725088;83;25401;-71
2022/02/01 05:11:32;;;;;;;24.67;6.95;;;;;;;-2.48;71.87;99399.25;1700317;83;25631;-71
2022/02/01 05:16:43;;;;;;;23.38;7.60;;;;;;;-2.54;71.87;99412.13;1725265;83;25527;-71
2022/02/01 05:19:05;;;;;;;30.02;7.80;;;;;;;-2.56;71.98;99416.08;1722766;83;27436;-71
2022/02/01 05:21:27;;;;;;;28.07;7.55;;;;;;;-2.57;72.03;99413.14;1723284;81;25840;-71
2022/02/01 05:23:56;;;;;;;25.65;7.95;;;;;;;-2.61;72.07;99408.07;1725116;83;25623;-71
2022/02/01 05:26:26;;;;;;;28.02;7.90;;;;;;;-2.63;72.03;99399.84;1725154;83;26445;-71
2022/02/01 05:28:52;;;;;;;24.30;7.95;;;;;;;-2.65;72.06;99403.25;1725322;82;25631;-71
2022/02/01 05:31:21;;;;;;;22.30;7.42;;;;;;;-2.67;72.07;99400.59;1725195;83;27354;-70
2022/02/01 05:33:47;;;;;;;21.63;7.93;;;;;;;-2.72;72.22;99403.95;1725249;83;25515;-69
2022/02/01 05:36:13;;;;;;;23.65;7.85;;;;;;;-2.75;72.37;99396.49;1725012;83;25741;-70
2022/02/01 05:38:40;;;;;;;24.57;8.35;;;;;;;-2.77;72.41;99391.97;1725075;83;25645;-71
2022/02/01 05:41:09;;;;;;;23.35;7.90;;;;;;;-2.79;72.48;99398.03;1725122;83;25453;-70
2022/02/01 05:43:36;;;;;;;28.23;9.30;;;;;;;-2.81;72.57;99402.74;1724918;81;28338;-71
2022/02/01 05:46:02;;;;;;;29.80;8.55;;;;;;;-2.83;72.66;99408.31;1724907;83;25543;-71
2022/02/01 05:48:29;;;;;;;19.30;7.03;;;;;;;-2.84;72.72;99415.95;1725088;83;25401;-71
2022/02/01 05:50:57;;;;;;;24.25;8.28;;;;;;;-2.85;72.68;99421.48;1725037;83;25611;-71
2022/02/01 05:53:24;;;;;;;22.32;7.75;;;;;;;-2.87;72.84;99430.20;1725117;83;25465;-70
2022/02/01 05:55:51;;;;;;;21.15;8.75;;;;;;;-2.88;72.96;99427.26;1725080;83;27411;-70
2022/02/01 05:58:18;;;;;;;34.45;11.90;;;;;;;-2.90;73.04;99427.50;1724958;83;25377;-71
2022/02/01 06:00:45;;;;;;;27.58;11.70;;;;;;;-2.91;73.05;99431.20;1725031;83;25535;-72
2022/02/01 06:03:12;;;;;;;34.65;11.90;;;;;;;-2.92;73.03;99429.59;1725049;83;25732;-70
2022/02/01 06:05:38;;;;;;;23.30;9.50;;;;;;;-2.93;73.11;99428.50;1725014;83;25552;-70
2022/02/01 06:08:05;;;;;;;20.25;8.85;;;;;;;-2.96;73.12;99424.51;1725048;83;27301;-71
2022/02/01 06:10:32;;;;;;;17.80;8.40;;;;;;;-2.99;73.30;99428.95;1724961;83;25427;-70
2022/02/01 06:12:59;;;;;;;22.58;8.65;;;;;;;-3.01;73.19;99429.19;1725071;83;25384;-71
2022/02/01 06:15:28;;;;;;;17.42;8.50;;;;;;;-3.02;73.33;99443.45;1725039;83;25613;-70
2022/02/01 06:17:55;;;;;;;23.73;9.00;;;;;;;-3.04;73.30;99446.86;1725156;83;25370;-70
2022/02/01 06:20:22;;;;;;;23.85;9.15;;;;;;;-3.04;73.54;99452.16;1725061;83;27301;-72
2022/02/01 06:22:50;;;;;;;24.98;8.93;;;;;;;-3.07;73.57;99454.48;1724950;83;25634;-71
2022/02/01 06:25:24;;;;;;;24.50;8.75;;;;;;;-3.08;73.66;99452.86;1725046;83;25514;-71
2022/02/01 06:27:46;;;;;;;;;;;;;;;-3.09;73.64;99456.04;1726517;82;26228;-70
2022/02/01 06:30:12;;;;;;;22.80;8.78;;;;;;;-3.12;73.65;99451.75;1725082;83;25484;-72
2022/02/01 06:32:40;;;;;;;24.25;9.65;;;;;;;-3.14;73.83;99450.67;1725075;83;27287;-71
2022/02/01 06:35:09;;;;;;;23.18;10.20;;;;;;;-3.16;73.96;99447.46;1727255;82;25383;-71
2022/02/01 06:37:35;;;;;;;25.52;10.18;;;;;;;-3.16;74.02;99445.34;1736547;82;25385;-72
2022/02/01 06:40:05;;;;;;;21.15;9.95;;;;;;;-3.18;74.10;99444.27;1736487;82;25700;-71
2022/02/01 06:42:35;;;;;;;29.30;9.93;;;;;;;-3.19;74.25;99452.70;1736550;82;25608;-72
2022/02/01 06:45:02;;;;;;;;;;;;;;;-3.21;74.19;99448.17;1739156;82;27870;-72
2022/02/01 06:47:28;;;;;;;21.25;9.20;;;;;;;-3.21;74.34;99455.31;1736559;82;25745;-72
2022/02/01 06:49:55;;;;;;;24.15;10.30;;;;;;;-3.25;74.54;99458.95;1736519;82;25384;-72
2022/02/01 06:52:22;;;;;;;23.45;9.80;;;;;;;-3.25;74.58;99452.84;1715308;82;26158;-72
2022/02/01 06:54:48;;;;;;;19.82;10.10;;;;;;;-3.25;74.53;99442.27;1736559;82;25457;-71
2022/02/01 06:57:15;;;;;;;21.17;10.55;;;;;;;-3.24;74.66;99451.29;1736497;82;27514;-70
2022/02/01 06:59:41;;;;;;;21.85;10.82;;;;;;;-3.24;74.87;99448.64;1736456;82;25673;-72
2022/02/01 07:02:08;;;;;;;24.20;10.20;;;;;;;-3.21;75.04;99442.88;1736547;82;25547;-71
2022/02/01 07:04:34;;;;;;;28.67;10.93;;;;;;;-3.17;75.41;99447.17;1736464;82;25604;-71
2022/02/01 07:07:01;;;;;;;23.45;10.55;;;;;;;-3.10;75.43;99453.13;1736522;82;25589;-70
2022/02/01 07:09:31;;;;;;;25.55;11.10;;;;;;;-3.03;75.56;99455.59;1736536;82;27482;-71
2022/02/01 07:11:56;;;;;;;32.05;13.72;;;;;;;-2.96;75.56;99462.05;1736118;82;25720;-71
2022/02/01 07:14:22;;;;;;;25.62;11.80;;;;;;;-2.91;75.67;99458.99;1736521;82;25548;-71
2022/02/01 07:16:48;;;;;;;22.95;11.15;;;;;;;-2.85;75.42;99451.92;1736545;82;25778;-71
2022/02/01 07:19:16;;;;;;;26.27;11.53;;;;;;;-2.80;75.39;99459.95;1736545;82;25646;-71
2022/02/01 07:21:43;;;;;;;24.65;11.30;;;;;;;-2.75;75.39;99453.41;1736508;82;27382;-71
2022/02/01 07:24:15;;;;;;;26.82;11.60;;;;;;;-2.69;75.43;99452.95;1736503;82;25389;-72
2022/02/01 07:26:39;;;;;;;33.02;11.68;;;;;;;-2.66;75.19;99456.45;1735868;81;25532;-72
2022/02/01 07:29:06;;;;;;;25.75;11.25;;;;;;;-2.65;75.07;99454.88;1736497;82;25651;-71
2022/02/01 07:31:32;;;;;;;23.27;11.57;;;;;;;-2.59;75.12;99465.55;1736589;82;25640;-70
2022/02/01 07:33:59;;;;;;;21.17;10.80;;;;;;;-2.57;74.95;99459.48;1736500;82;27542;-70
2022/02/01 07:36:25;;;;;;;27.45;11.88;;;;;;;-2.54;74.88;99462.98;1736341;82;25523;-70
2022/02/01 07:38:51;;;;;;;21.87;11.12;;;;;;;-2.53;74.90;99464.06;1736514;82;25496;-71
2022/02/01 07:41:18;;;;;;;28.30;10.80;;;;;;;-2.52;74.72;99469.65;1736425;82;25712;-71
2022/02/01 07:43:45;;;;;;;24.27;10.75;;;;;;;-2.48;74.81;99477.38;1729261;82;25749;-71
2022/02/01 07:46:13;;;;;;;25.50;10.50;;;;;;;-2.42;74.74;99480.09;1733024;82;28030;-72
2022/02/01 07:48:39;;;;;;;21.82;10.00;;;;;;;-2.36;74.61;99487.88;1721580;82;25611;-72
2022/02/01 07:51:06;;;;;;;21.90;10.58;;;;;;;-2.30;74.63;99476.32;1724245;82;25705;-72
2022/02/01 07:53:32;;;;;;;21.55;10.38;;;;;;;-2.20;74.68;99479.61;1724146;82;26184;-72
2022/02/01 07:55:59;;;;;;;21.95;9.65;;;;;;;-2.08;74.45;99480.83;1722473;82;26123;-71
2022/02/01 07:58:25;;;;;;;21.62;10.55;;;;;;;-1.88;75.22;99470.48;1722505;82;27528;-71
2022/02/01 08:00:51;;;;;;;24.07;10.28;;;;;;;-1.53;75.40;99477.26;1718168;82;25582;-71
2022/02/01 08:03:18;;;;;;;21.40;10.80;;;;;;;-1.26;74.38;99471.17;1717233;82;25823;-70
2022/02/01 08:05:45;;;;;;;24.70;10.72;;;;;;;-0.89;75.79;99476.27;1718767;82;26131;-71
2022/02/01 08:08:12;;;;;;;22.55;11.50;;;;;;;-0.45;76.83;99477.39;1728733;82;25634;-70
2022/02/01 08:10:46;;;;;;;27.27;10.28;;;;;;;0.03;76.26;99472.08;1720192;82;27958;-71
2022/02/01 08:20:56;;;;;;;20.72;10.40;;;;;;;0.95;72.16;99465.66;1736382;82;25713;-72
2022/02/01 08:23:22;;;;;;;21.77;10.53;;;;;;;1.17;70.59;99467.28;1713747;82;27331;-72
2022/02/01 08:25:51;;;;;;;21.48;9.60;;;;;;;1.29;69.28;99467.80;1730946;82;25686;-72
2022/02/01 08:28:19;;;;;;;17.35;8.93;;;;;;;1.32;69.02;99467.28;1714329;82;34810;-72
2022/02/01 08:30:51;;;;;;;18.02;9.05;;;;;;;1.51;69.36;99469.39;1721367;82;25581;-72
2022/02/01 08:33:18;;;;;;;17.00;8.85;;;;;;;1.91;70.14;99471.19;1727190;82;25461;-72
2022/02/01 08:35:45;;;;;;;15.83;8.58;;;;;;;2.38;67.87;99461.94;1710662;82;27375;-72
2022/02/01 08:38:12;;;;;;;17.87;7.70;;;;;;;2.64;68.99;99464.46;1728790;82;25686;-72
2022/02/01 08:40:38;;;;;;;18.75;8.80;;;;;;;3.21;67.22;99464.06;1718707;82;25613;-72
2022/02/01 08:43:05;;;;;;;18.87;8.43;;;;;;;3.30;65.77;99465.05;1736338;82;25611;-72
2022/02/01 08:45:31;;;;;;;15.63;8.00;;;;;;;3.41;63.54;99463.09;1711362;82;25686;-73
2022/02/01 08:47:59;;;;;;;12.73;6.50;;;;;;;3.48;65.20;99464.89;1731081;82;27410;-73
2022/02/01 08:50:31;;;;;;;16.85;8.15;;;;;;;3.82;65.09;99456.79;1715753;82;25663;-73
2022/02/01 08:53:12;;;;;;;20.30;7.97;;;;;;;4.04;63.13;99464.30;1719795;82;25633;-73
2022/02/01 08:55:37;;;;;;;18.70;9.93;;;;;;;3.98;62.95;99462.76;1727801;82;26153;-71
2022/02/01 08:58:04;;;;;;;20.70;10.35;;;;;;;3.84;61.96;99474.69;1710678;82;25783;-73
2022/02/01 09:00:32;;;;;;;16.45;8.90;;;;;;;3.54;60.49;99483.80;1724938;82;27899;-74
2022/02/01 09:03:03;;;;;;;20.88;9.85;;;;;;;3.21;60.73;99459.50;1722901;82;25665;-72
2022/02/01 09:05:30;;;;;;;16.67;9.33;;;;;;;3.07;61.06;99464.70;1736327;82;25636;-72
2022/02/01 09:07:59;;;;;;;20.25;9.75;;;;;;;3.04;61.46;99463.91;1710758;82;25617;-72
2022/02/01 09:10:25;;;;;;;17.65;8.98;;;;;;;3.01;61.33;99465.02;1726084;82;26263;-73
2022/02/01 09:12:52;;;;;;;18.85;9.68;;;;;;;3.09;62.11;99468.43;1721379;82;27879;-74
2022/02/01 09:15:18;;;;;;;20.75;9.93;;;;;;;3.36;62.78;99471.41;1714571;82;25467;-73
2022/02/01 09:17:44;;;;;;;20.70;10.72;;;;;;;3.40;61.24;99462.28;1731007;82;25479;-74
2022/02/01 09:20:11;;;;;;;17.25;9.30;;;;;;;3.34;60.48;99466.09;1712839;82;26344;-73
2022/02/01 09:22:38;;;;;;;17.98;10.00;;;;;;;3.69;62.11;99466.82;1723412;82;25469;-72
2022/02/01 09:25:07;;;;;;;19.50;11.12;;;;;;;3.82;59.52;99476.86;1724194;82;27585;-73
2022/02/01 09:27:33;;;;;;;20.45;11.38;;;;;;;3.63;60.11;99465.30;1711368;81;25653;-72
2022/02/01 09:30:00;;;;;;;19.85;11.08;;;;;;;3.51;58.59;99462.45;1731176;82;25285;-73
2022/02/01 09:32:27;;;;;;;22.05;11.00;;;;;;;3.53;60.48;99466.19;1730710;82;25681;-71
2022/02/01 09:34:53;;;;;;;21.57;10.48;;;;;;;3.60;60.54;99472.55;1736303;82;25393;-73
2022/02/01 09:37:21;;;;;;;17.73;9.75;;;;;;;3.46;59.38;99470.52;1705325;82;27317;-74
2022/02/01 09:39:47;;;;;;;18.67;9.10;;;;;;;3.14;59.12;99471.84;1694458;83;25517;-73
2022/02/01 09:42:15;;;;;;;17.32;8.13;;;;;;;2.92;58.93;99475.50;1702246;83;25627;-72
2022/02/01 09:44:43;;;;;;;18.65;8.13;;;;;;;2.56;58.58;99481.84;1710728;83;26270;-73
2022/02/01 09:47:11;;;;;;;15.48;8.53;;;;;;;2.29;59.69;99475.57;1713783;83;25443;-73
2022/02/01 09:49:38;;;;;;;13.80;7.72;;;;;;;2.08;59.79;99475.37;1699543;83;27337;-73
2022/02/01 09:52:06;;;;;;;18.80;8.15;;;;;;;1.92;59.81;99475.97;1718403;83;25759;-71
2022/02/01 09:54:32;;;;;;;17.82;7.80;;;;;;;1.77;60.75;99466.95;1705883;83;25737;-72
2022/02/01 09:57:04;;;;;;;17.15;7.40;;;;;;;1.67;60.72;99470.98;1707235;83;25784;-73
2022/02/01 09:59:33;;;;;;;17.42;7.62;;;;;;;1.73;61.84;99463.22;1716748;83;25607;-72
2022/02/01 10:02:12;;;;;;;21.42;7.70;;;;;;;1.73;61.22;99459.76;1699266;83;27089;-72
2022/02/01 10:04:39;;;;;;;17.05;7.50;;;;;;;1.70;61.83;99458.42;1711436;83;25740;-71
2022/02/01 10:07:14;;;;;;;19.17;8.43;;;;;;;1.65;61.71;99457.91;1712812;83;25605;-73
2022/02/01 10:09:54;;;;;;;18.15;6.92;;;;;;;1.74;62.61;99452.83;1699344;83;25774;-72
2022/02/01 10:12:21;;;;;;;16.93;7.20;;;;;;;1.91;62.69;99448.52;1715368;83;25842;-71
2022/02/01 10:17:56;;;;;;;14.47;7.35;;;;;;;2.03;61.13;99451.66;1670339;85;25804;-72
2022/02/01 10:20:18;;;;;;;14.55;7.22;;;;;;;1.83;61.18;99440.52;1615898;86;26435;-71
2022/02/01 10:22:45;;;;;;;19.67;8.53;;;;;;;1.61;61.41;99432.06;1667619;85;25754;-71
2022/02/01 10:25:30;;;;;;;17.10;7.50;;;;;;;1.54;61.72;99434.22;1672249;85;25636;-72
2022/02/01 10:28:00;;;;;;;13.78;7.78;;;;;;;1.46;61.61;99434.22;1676822;85;27349;-72
2022/02/01 10:30:35;;;;;;;18.82;8.83;;;;;;;1.38;62.03;99422.77;1663569;85;25780;-72
2022/02/01 10:38:11;;;;;;;17.00;7.15;;;;;;;1.23;62.86;99422.27;1626629;86;25703;-71
2022/02/01 10:40:47;;;;;;;15.13;7.33;;;;;;;1.16;62.75;99415.06;1664935;85;27481;-72
2022/02/01 10:43:30;;;;;;;18.57;7.80;;;;;;;1.04;63.08;99406.83;1673796;85;25671;-71
2022/02/01 10:46:12;;;;;;;15.48;7.33;;;;;;;0.95;63.86;99394.31;1635461;85;25727;-72
2022/02/01 10:48:49;;;;;;;16.30;6.50;;;;;;;0.97;64.47;99386.84;1668157;85;25845;-72
2022/02/01 10:51:24;;;;;;;20.30;6.75;;;;;;;1.05;64.62;99384.44;1591736;89;25483;-71
2022/02/01 10:53:54;;;;;;;14.35;6.55;;;;;;;1.57;64.95;99376.37;1605652;86;28051;-71
2022/02/01 10:56:23;;;;;;;15.13;7.47;;;;;;;2.09;63.23;99371.06;1646915;86;26571;-72
2022/02/01 10:58:52;;;;;;;15.95;6.95;;;;;;;2.27;64.28;99362.19;1624773;88;34962;-72
2022/02/01 11:01:20;;;;;;;14.38;7.12;;;;;;;2.46;63.50;99368.45;1644353;86;25680;-71
2022/02/01 11:03:49;;;;;;;16.25;7.35;;;;;;;2.47;62.68;99366.05;1628724;86;25887;-72
2022/02/01 11:06:16;;;;;;;16.40;7.60;;;;;;;2.42;62.30;99367.42;1664550;85;27960;-72
2022/02/01 11:08:46;;;;;;;11.57;5.90;;;;;;;2.18;62.55;99372.09;1623893;88;25724;-72
2022/02/01 11:11:19;;;;;;;18.95;7.17;;;;;;;2.01;63.23;99357.78;1661523;85;25835;-71
2022/02/01 11:13:49;;;;;;;18.65;7.20;;;;;;;1.95;63.50;99361.53;1630381;85;25741;-71
2022/02/01 11:16:21;;;;;;;;;;;;;;;1.82;63.88;99343.45;1691817;83;25573;-72
2022/02/01 11:19:08;;;;;;;13.78;6.50;;;;;;;1.93;64.30;99349.56;1724099;83;27462;-72
2022/02/01 11:21:49;;;;;;;15.68;6.62;;;;;;;1.95;64.61;99348.75;1699694;83;25635;-73
2022/02/01 11:24:37;;;;;;;14.68;7.42;;;;;;;2.10;64.41;99342.54;1716380;83;25706;-73
2022/02/01 11:27:17;;;;;;;14.53;6.50;;;;;;;2.27;64.67;99339.50;1711663;83;25761;-72
2022/02/01 11:30:03;;;;;;;13.03;6.33;;;;;;;2.17;63.54;99349.69;1699333;83;25661;-71
2022/02/01 11:32:20;;;;;;;12.73;6.85;;;;;;;2.07;64.34;99342.53;1713164;83;27314;-71
2022/02/01 11:34:47;;;;;;;17.67;7.08;;;;;;;1.96;63.74;99339.14;1708539;83;25674;-71
2022/02/01 11:37:16;;;;;;;19.90;8.98;;;;;;;2.12;64.47;99327.05;1714778;83;25602;-72
2022/02/01 11:39:53;;;;;;;14.58;7.10;;;;;;;2.15;63.95;99315.83;1715190;83;26138;-72
2022/02/01 11:42:23;;;;;;;20.77;7.53;;;;;;;1.97;63.84;99319.38;1724443;83;25880;-71
2022/02/01 11:45:06;;;;;;;;;;;;;;;1.82;64.17;99309.61;1686939;84;27970;-72
2022/02/01 11:47:35;;;;;;;19.52;8.93;;;;;;;1.74;64.60;99314.17;1713432;83;25777;-72
2022/02/01 11:50:14;;;;;;;18.42;7.10;;;;;;;1.66;64.78;99308.08;1700656;83;34787;-72
2022/02/01 11:52:51;;;;;;;17.52;7.22;;;;;;;1.68;65.37;99304.05;1653672;86;25689;-72
2022/02/01 11:55:20;;;;;;;15.45;7.30;;;;;;;1.86;66.13;99303.98;1647309;86;25850;-72
2022/02/01 11:57:52;;;;;;;;;;;;;;;2.03;65.94;99292.95;1656448;86;27744;-69
2022/02/01 12:00:23;;;;;;;14.58;7.45;;;;;;;2.11;65.30;99290.24;1631687;86;25702;-70
2022/02/01 12:02:58;;;;;;;16.00;6.85;;;;;;;2.13;64.97;99283.27;1654762;86;25806;-70
2022/02/01 12:05:32;;;;;;;16.27;7.65;;;;;;;2.07;64.39;99281.73;1654278;85;25547;-71
2022/02/01 12:08:14;;;;;;;14.90;6.75;;;;;;;1.89;63.89;99275.16;1654244;86;25611;-72
2022/02/01 12:10:52;;;;;;;17.80;7.92;;;;;;;1.81;64.73;99264.55;1655107;86;27321;-70
2022/02/01 12:13:22;;;;;;;14.87;7.33;;;;;;;1.79;64.42;99266.16;1655003;86;25781;-71
2022/02/01 12:15:52;;;;;;;19.85;8.28;;;;;;;1.81;64.78;99260.00;1655131;86;25598;-70
2022/02/01 12:18:37;;;;;;;;;;;;;;;1.81;64.68;99268.55;1657292;86;26167;-71
2022/02/01 12:21:35;;;;;;;15.13;7.35;;;;;;;1.76;64.67;99261.92;1655184;86;25594;-70
2022/02/01 12:24:04;;;;;;;19.73;7.70;;;;;;;1.68;65.22;99252.61;1655491;86;27961;-71
2022/02/01 12:26:37;;;;;;;14.93;7.60;;;;;;;1.70;65.09;99263.00;1654972;86;25648;-70
2022/02/01 12:29:11;;;;;;;18.55;7.87;;;;;;;1.63;65.33;99257.97;1649933;86;25653;-70
2022/02/01 12:31:40;;;;;;;17.35;7.20;;;;;;;1.60;65.78;99258.52;1682968;85;25771;-70
2022/02/01 12:34:13;;;;;;;18.33;7.53;;;;;;;1.58;65.63;99258.79;1654745;86;25682;-71
2022/02/01 12:36:49;;;;;;;15.38;7.37;;;;;;;1.63;66.04;99252.64;1654794;86;27353;-71
2022/02/01 12:39:28;;;;;;;15.83;6.20;;;;;;;1.63;65.81;99249.43;1654578;86;26248;-72
2022/02/01 12:42:02;;;;;;;18.60;6.37;;;;;;;1.59;65.53;99242.28;1653121;85;25807;-71
2022/02/01 12:47:02;;;;;;;14.80;6.08;;;;;;;1.45;65.36;99238.09;1654693;86;25689;-73
2022/02/01 12:49:45;;;;;;;11.63;6.15;;;;;;;1.42;65.90;99231.42;1654482;86;27958;-71
2022/02/01 12:52:34;;;;;;;14.95;6.85;;;;;;;1.45;65.85;99232.22;1654551;86;25608;-73
2022/02/01 12:55:14;;;;;;;20.90;7.70;;;;;;;1.45;65.93;99226.09;1630071;86;25756;-72
2022/02/01 12:57:43;;;;;;;17.70;7.58;;;;;;;1.41;65.70;99229.03;1654676;86;25722;-71
2022/02/01 13:00:17;;;;;;;13.55;6.95;;;;;;;1.39;65.94;99226.64;1654624;86;25593;-69
2022/02/01 13:02:45;;;;;;;15.03;6.95;;;;;;;1.38;65.84;99226.39;1654321;86;27352;-72
2022/02/01 13:05:16;;;;;;;19.73;7.85;;;;;;;1.36;65.85;99219.73;1654468;86;25748;-71
2022/02/01 13:15:54;;;;;;;17.55;6.90;;;;;;;1.30;65.95;99214.97;1653777;85;27351;-72
2022/02/01 13:18:20;;;;;;;19.23;6.85;;;;;;;1.32;66.03;99215.48;1694692;83;25772;-72
2022/02/01 13:20:43;;;;;;;18.23;6.75;;;;;;;1.31;65.83;99207.22;1661306;85;25658;-71